createdAt,value
2022-08-27T00:00:24.563Z,91.54
2022-08-27T00:02:54.281Z,90.78
2022-08-27T00:05:24.443Z,90.30
2022-08-27T00:07:57.091Z,90.32
2022-08-27T00:10:29.704Z,90.47
2022-08-27T00:12:59.552Z,90.02
2022-08-27T00:15:30.238Z,90.01
2022-08-27T00:18:00.074Z,90.27
2022-08-27T00:20:30.109Z,89.34
2022-08-27T00:23:02.447Z,89.55
2022-08-27T00:25:32.423Z,89.04
2022-08-27T00:28:02.043Z,88.90
2022-08-27T00:30:31.899Z,90.68
2022-08-27T00:33:01.522Z,91.18
2022-08-27T00:35:31.274Z,90.03
2022-08-27T00:38:03.788Z,90.65
2022-08-27T00:40:34.422Z,89.75
2022-08-27T00:43:05.152Z,88.93
2022-08-27T00:45:42.279Z,89.48
2022-08-27T00:48:15.446Z,90.61
2022-08-27T00:50:52.097Z,90.81
2022-08-27T00:53:29.129Z,91.10
2022-08-27T00:56:02.911Z,91.78
2022-08-27T00:58:35.522Z,91.27
2022-08-27T01:01:06.597Z,91.42
2022-08-27T01:03:36.452Z,91.30
2022-08-27T01:06:08.949Z,91.99
2022-08-27T01:08:46.266Z,91.94
2022-08-27T01:11:16.303Z,92.73
2022-08-27T01:14:00.131Z,92.42
2022-08-27T01:16:36.101Z,92.73
2022-08-27T01:19:09.071Z,93.50
2022-08-27T01:21:45.818Z,92.75
2022-08-27T01:24:32.078Z,92.59
2022-08-27T01:27:02.531Z,92.70
2022-08-27T01:29:34.152Z,92.50
2022-08-27T01:32:10.330Z,92.54
2022-08-27T01:34:40.172Z,92.68
2022-08-27T01:37:10.731Z,92.19
2022-08-27T01:39:44.678Z,92.39
2022-08-27T01:42:19.722Z,92.31
2022-08-27T01:44:52.231Z,92.44
2022-08-27T01:47:24.103Z,93.22
2022-08-27T01:50:01.355Z,92.65
2022-08-27T01:52:33.970Z,92.40
2022-08-27T01:55:08.904Z,92.72
2022-08-27T01:57:39.908Z,92.46
2022-08-27T02:00:13.745Z,92.03
2022-08-27T02:02:44.672Z,92.75
2022-08-27T02:05:14.968Z,93.06
2022-08-27T02:07:45.570Z,91.81
2022-08-27T02:10:23.634Z,92.13
2022-08-27T02:12:54.129Z,92.26
2022-08-27T02:15:24.313Z,92.51
2022-08-27T02:17:54.160Z,92.36
2022-08-27T02:20:25.326Z,91.90
2022-08-27T02:22:59.497Z,92.13
2022-08-27T02:25:31.825Z,92.42
2022-08-27T02:28:02.968Z,92.69
2022-08-27T02:30:34.569Z,92.41
2022-08-27T02:33:05.824Z,92.34
2022-08-27T02:35:39.071Z,92.50
2022-08-27T02:38:09.403Z,92.36
2022-08-27T02:40:41.894Z,92.83
2022-08-27T02:43:15.713Z,92.22
2022-08-27T02:45:46.254Z,92.39
2022-08-27T02:48:16.178Z,93.41
2022-08-27T02:50:47.165Z,92.52
2022-08-27T02:53:17.384Z,93.09
2022-08-27T02:55:52.391Z,93.53
2022-08-27T02:58:22.088Z,92.78
2022-08-27T03:00:51.774Z,93.03
2022-08-27T03:03:21.582Z,93.20
2022-08-27T03:05:51.292Z,93.59
2022-08-27T03:08:21.081Z,93.56
2022-08-27T03:10:53.501Z,93.15
2022-08-27T03:13:23.731Z,92.86
2022-08-27T03:15:53.532Z,93.16
2022-08-27T03:18:22.016Z,93.37
2022-08-27T03:20:53.980Z,92.74
2022-08-27T03:23:25.870Z,93.26
2022-08-27T03:26:01.521Z,93.58
2022-08-27T03:28:34.091Z,95.35
2022-08-27T03:31:05.805Z,94.91
2022-08-27T03:33:37.861Z,93.52
2022-08-27T03:36:08.866Z,94.02
2022-08-27T03:38:38.825Z,94.00
2022-08-27T03:41:11.169Z,94.57
2022-08-27T03:43:40.889Z,93.78
2022-08-27T03:46:11.274Z,93.65
2022-08-27T03:48:41.207Z,94.20
2022-08-27T03:51:15.255Z,94.22
2022-08-27T03:53:47.259Z,95.15
2022-08-27T03:56:19.557Z,94.73
2022-08-27T03:58:49.403Z,95.69
2022-08-27T04:01:19.550Z,94.44
2022-08-27T04:03:49.412Z,94.72
2022-08-27T04:06:19.068Z,94.81
2022-08-27T04:08:48.778Z,94.09
2022-08-27T04:11:22.131Z,94.19
2022-08-27T04:13:51.802Z,94.32
2022-08-27T04:16:21.591Z,93.90
2022-08-27T04:18:51.265Z,93.48
2022-08-27T04:21:20.937Z,93.37
2022-08-27T04:23:51.058Z,93.51
2022-08-27T04:26:26.449Z,93.69
2022-08-27T04:28:56.445Z,94.61
2022-08-27T04:31:26.293Z,93.88
2022-08-27T04:33:56.211Z,93.58
2022-08-27T04:36:25.942Z,92.96
2022-08-27T04:38:55.672Z,92.72
2022-08-27T04:41:28.345Z,93.77
2022-08-27T04:43:59.962Z,92.83
2022-08-27T04:46:32.293Z,94.15
2022-08-27T04:49:04.613Z,93.35
2022-08-27T04:51:40.601Z,93.08
2022-08-27T04:54:13.150Z,94.20
2022-08-27T04:56:46.467Z,93.89
2022-08-27T04:59:16.393Z,94.31
2022-08-27T05:01:46.439Z,94.59
2022-08-27T05:04:18.897Z,95.00
2022-08-27T05:06:50.707Z,94.71
2022-08-27T05:09:24.627Z,93.94
2022-08-27T05:11:59.252Z,94.58
2022-08-27T05:14:30.603Z,94.29
2022-08-27T05:17:00.813Z,94.66
2022-08-27T05:19:31.382Z,95.28
2022-08-27T05:22:01.611Z,94.63
2022-08-27T05:24:32.498Z,94.76
2022-08-27T05:27:04.859Z,95.17
2022-08-27T05:29:34.538Z,94.85
2022-08-27T05:32:04.212Z,95.13
2022-08-27T05:34:33.927Z,95.52
2022-08-27T05:37:03.575Z,96.22
2022-08-27T05:39:33.282Z,95.50
2022-08-27T05:42:05.578Z,94.57
2022-08-27T05:44:42.595Z,94.55
2022-08-27T05:47:12.915Z,95.43
2022-08-27T05:49:42.776Z,95.39
2022-08-27T05:52:14.249Z,95.73
2022-08-27T05:54:43.909Z,95.01
2022-08-27T05:57:16.272Z,94.76
2022-08-27T05:59:58.366Z,94.28
2022-08-27T06:02:28.602Z,95.20
2022-08-27T06:04:58.690Z,95.67
2022-08-27T06:07:29.955Z,94.03
2022-08-27T06:10:00.195Z,94.25
2022-08-27T06:12:32.655Z,93.75
2022-08-27T06:15:02.621Z,94.40
2022-08-27T06:17:32.272Z,94.75
2022-08-27T06:20:01.989Z,94.52
2022-08-27T06:22:31.706Z,94.86
2022-08-27T06:25:01.374Z,95.73
2022-08-27T06:27:33.684Z,94.95
2022-08-27T06:30:03.378Z,95.67
2022-08-27T06:32:33.063Z,96.03
2022-08-27T06:35:02.685Z,95.55
2022-08-27T06:37:32.440Z,94.75
2022-08-27T06:40:02.189Z,94.98
2022-08-27T06:42:34.835Z,95.98
2022-08-27T06:45:06.099Z,96.80
2022-08-27T06:47:36.566Z,95.71
2022-08-27T06:50:06.927Z,95.83
2022-08-27T06:52:37.016Z,94.73
2022-08-27T06:55:07.945Z,96.15
2022-08-27T06:57:40.427Z,94.82
2022-08-27T07:00:12.572Z,95.02
2022-08-27T07:02:42.256Z,95.57
2022-08-27T07:05:12.879Z,95.11
2022-08-27T07:07:46.703Z,94.98
2022-08-27T07:10:18.222Z,94.99
2022-08-27T07:12:50.570Z,94.85
2022-08-27T07:15:22.160Z,94.06
2022-08-27T07:17:54.925Z,94.20
2022-08-27T07:20:25.514Z,94.08
2022-08-27T07:22:58.769Z,94.38
2022-08-27T07:25:28.476Z,93.13
2022-08-27T07:28:01.116Z,93.30
2022-08-27T07:30:30.828Z,93.64
2022-08-27T07:33:00.547Z,93.14
2022-08-27T07:35:31.725Z,93.12
2022-08-27T07:38:01.598Z,93.53
2022-08-27T07:40:31.408Z,93.50
2022-08-27T07:43:30.799Z,93.95
2022-08-27T07:46:04.629Z,93.93
2022-08-27T07:48:36.625Z,93.50
2022-08-27T07:51:08.627Z,95.04
2022-08-27T07:53:38.309Z,94.66
2022-08-27T07:56:09.847Z,95.20
2022-08-27T07:58:43.114Z,95.26
2022-08-27T08:01:13.936Z,94.25
2022-08-27T08:03:44.441Z,95.78
2022-08-27T08:06:16.696Z,96.03
2022-08-27T08:08:46.499Z,96.83
2022-08-27T08:11:18.416Z,97.34
2022-08-27T08:13:50.857Z,97.89
2022-08-27T08:16:21.180Z,100.00
2022-08-27T08:18:50.909Z,100.00
2022-08-27T08:21:20.712Z,100.00
2022-08-27T08:23:50.666Z,100.00
2022-08-27T08:26:20.492Z,100.00
2022-08-27T08:28:52.871Z,100.00
2022-08-27T08:31:24.250Z,100.00
2022-08-27T08:33:54.929Z,100.00
2022-08-27T08:36:24.670Z,100.00
2022-08-27T08:38:54.446Z,100.00
2022-08-27T08:41:38.137Z,100.00
2022-08-27T08:44:17.623Z,100.00
2022-08-27T08:46:52.406Z,100.00
2022-08-27T08:49:34.815Z,100.00
2022-08-27T08:52:30.616Z,100.00
2022-08-27T08:55:11.293Z,100.00
2022-08-27T08:57:52.044Z,100.00
2022-08-27T09:00:24.542Z,100.00
2022-08-27T09:02:57.814Z,100.00
2022-08-27T09:05:28.252Z,100.00
2022-08-27T09:08:31.908Z,100.00
2022-08-27T09:11:08.372Z,100.00
2022-08-27T09:13:45.498Z,100.00
2022-08-27T09:16:19.007Z,100.00
2022-08-27T09:18:52.467Z,100.00
2022-08-27T09:21:32.726Z,100.00
2022-08-27T09:24:09.021Z,100.00
2022-08-27T09:26:42.275Z,100.00
2022-08-27T09:29:20.391Z,100.00
2022-08-27T09:31:58.789Z,100.00
2022-08-27T09:34:35.982Z,100.00
2022-08-27T09:37:11.204Z,100.00
2022-08-27T09:39:50.216Z,100.00
2022-08-27T09:42:32.782Z,100.00
2022-08-27T09:45:03.022Z,100.00
2022-08-27T09:47:45.342Z,100.00
2022-08-27T09:50:15.527Z,100.00
2022-08-27T09:52:55.225Z,100.00
2022-08-27T09:55:34.216Z,100.00
2022-08-27T09:58:06.826Z,100.00
2022-08-27T10:00:40.126Z,100.00
2022-08-27T10:03:13.930Z,100.00
2022-08-27T10:05:50.733Z,100.00
2022-08-27T10:08:29.045Z,100.00
2022-08-27T10:11:01.339Z,100.00
2022-08-27T10:13:36.625Z,100.00
2022-08-27T10:16:20.272Z,100.00
2022-08-27T10:19:05.470Z,100.00
2022-08-27T10:21:44.658Z,100.00
2022-08-27T10:24:25.168Z,100.00
2022-08-27T10:27:06.134Z,100.00
2022-08-27T10:29:44.990Z,100.00
2022-08-27T10:32:52.325Z,100.00
2022-08-27T10:35:31.724Z,100.00
2022-08-27T10:38:13.490Z,100.00
2022-08-27T10:40:49.114Z,100.00
2022-08-27T10:43:33.739Z,100.00
2022-08-27T10:46:17.427Z,100.00
2022-08-27T10:48:55.766Z,100.00
2022-08-27T10:51:34.672Z,100.00
2022-08-27T10:54:13.192Z,100.00
2022-08-27T10:56:56.951Z,100.00
2022-08-27T10:59:42.493Z,100.00
2022-08-27T11:02:22.430Z,100.00
2022-08-27T11:04:55.623Z,100.00
2022-08-27T11:07:32.388Z,100.00
2022-08-27T11:10:06.019Z,100.00
2022-08-27T11:12:40.128Z,100.00
2022-08-27T11:15:15.974Z,100.00
2022-08-27T11:17:51.631Z,100.00
2022-08-27T11:20:25.420Z,100.00
2022-08-27T11:23:02.996Z,100.00
2022-08-27T11:25:44.218Z,100.00
2022-08-27T11:28:14.614Z,100.00
2022-08-27T11:30:59.342Z,100.00
2022-08-27T11:33:37.707Z,100.00
2022-08-27T11:36:33.717Z,100.00
2022-08-27T11:39:13.726Z,100.00
2022-08-27T11:42:03.629Z,100.00
2022-08-27T11:44:33.815Z,100.00
2022-08-27T11:47:14.339Z,100.00
2022-08-27T11:49:51.143Z,100.00
2022-08-27T11:52:29.271Z,100.00
2022-08-27T11:55:17.407Z,100.00
2022-08-27T11:57:47.885Z,100.00
2022-08-27T12:00:22.025Z,100.00
2022-08-27T12:03:00.858Z,100.00
2022-08-27T12:05:40.001Z,100.00
2022-08-27T12:08:21.237Z,100.00
2022-08-27T12:11:06.548Z,100.00
2022-08-27T12:13:42.061Z,100.00
2022-08-27T12:16:25.010Z,100.00
2022-08-27T12:19:14.318Z,100.00
2022-08-27T12:21:53.414Z,100.00
2022-08-27T12:24:50.258Z,100.00
2022-08-27T12:27:37.159Z,100.00
2022-08-27T12:30:21.241Z,100.00
2022-08-27T12:32:54.580Z,100.00
2022-08-27T12:35:29.722Z,100.00
2022-08-27T12:38:14.035Z,100.00
2022-08-27T12:40:50.797Z,100.00
2022-08-27T12:43:27.529Z,100.00
2022-08-27T12:46:02.514Z,100.00
2022-08-27T12:48:39.563Z,100.00
2022-08-27T12:51:15.185Z,100.00
2022-08-27T12:53:47.877Z,100.00
2022-08-27T12:56:40.468Z,100.00
2022-08-27T12:59:31.815Z,100.00
2022-08-27T13:02:10.226Z,100.00
2022-08-27T13:04:43.871Z,100.00
2022-08-27T13:07:13.569Z,100.00
2022-08-27T13:09:43.257Z,100.00
2022-08-27T13:12:20.064Z,100.00
2022-08-27T13:14:56.895Z,100.00
2022-08-27T13:17:26.986Z,100.00
2022-08-27T13:20:02.202Z,100.00
2022-08-27T13:22:34.496Z,100.00
2022-08-27T13:25:05.019Z,98.73
2022-08-27T13:27:37.274Z,100.00
2022-08-27T13:30:30.893Z,100.00
2022-08-27T13:33:04.110Z,100.00
2022-08-27T13:35:34.327Z,100.00
2022-08-27T13:38:06.262Z,100.00
2022-08-27T13:40:38.786Z,98.60
2022-08-27T13:43:12.476Z,100.00
2022-08-27T13:45:45.697Z,100.00
2022-08-27T13:48:15.904Z,100.00
2022-08-27T13:50:52.654Z,100.00
2022-08-27T13:53:39.941Z,100.00
2022-08-27T13:56:10.354Z,100.00
2022-08-27T13:58:40.527Z,100.00
2022-08-27T14:01:16.012Z,100.00
2022-08-27T14:03:52.102Z,100.00
2022-08-27T14:06:36.129Z,100.00
2022-08-27T14:09:19.816Z,100.00
2022-08-27T14:11:50.196Z,100.00
2022-08-27T14:14:21.549Z,100.00
2022-08-27T14:17:02.508Z,100.00
2022-08-27T14:19:37.076Z,100.00
2022-08-27T14:22:07.635Z,100.00
2022-08-27T14:24:37.330Z,100.00
2022-08-27T14:27:10.825Z,100.00
2022-08-27T14:29:40.658Z,100.00
2022-08-27T14:32:13.210Z,100.00
2022-08-27T14:34:43.123Z,100.00
2022-08-27T14:37:13.013Z,100.00
2022-08-27T14:39:44.844Z,100.00
2022-08-27T14:42:15.343Z,99.17
2022-08-27T14:44:45.105Z,99.71
2022-08-27T14:47:18.928Z,100.00
2022-08-27T14:49:50.272Z,100.00
2022-08-27T14:52:19.992Z,100.00
2022-08-27T14:54:49.725Z,100.00
2022-08-27T14:57:19.561Z,100.00
2022-08-27T14:59:49.265Z,100.00
2022-08-27T15:02:23.424Z,100.00
2022-08-27T15:04:53.461Z,100.00
2022-08-27T15:07:23.525Z,100.00
2022-08-27T15:09:55.534Z,100.00
2022-08-27T15:12:26.395Z,100.00
2022-08-27T15:14:57.129Z,100.00
2022-08-27T15:17:35.535Z,100.00
2022-08-27T15:20:06.623Z,100.00
2022-08-27T15:22:40.210Z,100.00
2022-08-27T15:25:14.697Z,100.00
2022-08-27T15:27:44.679Z,100.00
2022-08-27T15:30:17.095Z,99.17
2022-08-27T15:32:51.414Z,100.00
2022-08-27T15:35:27.971Z,100.00
2022-08-27T15:37:59.964Z,100.00
2022-08-27T15:40:31.963Z,100.00
2022-08-27T15:43:04.947Z,100.00
2022-08-27T15:45:36.679Z,100.00
2022-08-27T15:48:10.802Z,100.00
2022-08-27T15:50:40.844Z,100.00
2022-08-27T15:53:11.354Z,100.00
2022-08-27T15:55:44.447Z,100.00
2022-08-27T15:58:14.819Z,100.00
2022-08-27T16:00:46.561Z,100.00
2022-08-27T16:03:19.605Z,100.00
2022-08-27T16:05:57.978Z,100.00
2022-08-27T16:08:29.391Z,100.00
2022-08-27T16:11:03.880Z,100.00
2022-08-27T16:13:33.842Z,100.00
2022-08-27T16:16:03.990Z,100.00
2022-08-27T16:18:38.076Z,100.00
2022-08-27T16:21:08.240Z,100.00
2022-08-27T16:23:38.618Z,100.00
2022-08-27T16:26:08.775Z,100.00
2022-08-27T16:28:38.529Z,100.00
2022-08-27T16:31:10.378Z,100.00
2022-08-27T16:33:45.432Z,100.00
2022-08-27T16:36:15.773Z,100.00
2022-08-27T16:38:45.643Z,100.00
2022-08-27T16:41:16.284Z,100.00
2022-08-27T16:43:48.968Z,100.00
2022-08-27T16:46:18.804Z,100.00
2022-08-27T16:49:03.744Z,100.00
2022-08-27T16:51:35.865Z,100.00
2022-08-27T16:54:07.572Z,100.00
2022-08-27T16:56:37.726Z,100.00
2022-08-27T16:59:08.297Z,100.00
2022-08-27T17:01:38.102Z,100.00
2022-08-27T17:04:19.360Z,100.00
2022-08-27T17:06:56.786Z,100.00
2022-08-27T17:09:28.081Z,100.00
2022-08-27T17:12:01.072Z,100.00
2022-08-27T17:14:39.710Z,100.00
2022-08-27T17:17:09.799Z,100.00
2022-08-27T17:19:42.152Z,100.00
2022-08-27T17:22:12.176Z,100.00
2022-08-27T17:24:41.912Z,100.00
2022-08-27T17:27:11.960Z,100.00
2022-08-27T17:29:41.690Z,100.00
2022-08-27T17:32:11.970Z,100.00
2022-08-27T17:34:44.347Z,100.00
2022-08-27T17:37:14.104Z,100.00
2022-08-27T17:39:44.017Z,100.00
2022-08-27T17:42:13.774Z,100.00
2022-08-27T17:44:43.509Z,100.00
2022-08-27T17:47:13.257Z,100.00
2022-08-27T17:49:45.588Z,100.00
2022-08-27T17:52:17.544Z,100.00
2022-08-27T17:54:51.077Z,100.00
2022-08-27T17:57:23.617Z,100.00
2022-08-27T17:59:54.194Z,100.00
2022-08-27T18:02:26.302Z,100.00
2022-08-27T18:04:59.304Z,100.00
2022-08-27T18:07:30.545Z,100.00
2022-08-27T18:10:00.445Z,100.00
2022-08-27T18:12:30.492Z,100.00
2022-08-27T18:15:05.985Z,100.00
2022-08-27T18:17:36.084Z,100.00
2022-08-27T18:20:12.888Z,100.00
2022-08-27T18:22:48.196Z,100.00
2022-08-27T18:25:20.763Z,100.00
2022-08-27T18:27:52.888Z,100.00
2022-08-27T18:30:23.166Z,100.00
2022-08-27T18:32:53.048Z,100.00
2022-08-27T18:35:27.784Z,100.00
2022-08-27T18:37:57.986Z,100.00
2022-08-27T18:40:29.720Z,100.00
2022-08-27T18:43:00.554Z,100.00
2022-08-27T18:45:33.309Z,100.00
2022-08-27T18:48:03.314Z,100.00
2022-08-27T18:50:35.614Z,100.00
2022-08-27T18:53:05.813Z,100.00
2022-08-27T18:55:35.552Z,100.00
2022-08-27T18:58:05.209Z,100.00
2022-08-27T19:00:35.068Z,100.00
2022-08-27T19:03:04.814Z,100.00
2022-08-27T19:05:37.201Z,100.00
2022-08-27T19:08:07.430Z,100.00
2022-08-27T19:10:37.177Z,100.00
2022-08-27T19:13:06.850Z,100.00
2022-08-27T19:15:36.649Z,100.00
2022-08-27T19:18:09.270Z,100.00
2022-08-27T19:20:41.599Z,100.00
2022-08-27T19:23:11.242Z,100.00
2022-08-27T19:25:41.996Z,100.00
2022-08-27T19:28:12.024Z,100.00
2022-08-27T19:30:41.929Z,100.00
2022-08-27T19:33:11.666Z,100.00
2022-08-27T19:35:45.539Z,100.00
2022-08-27T19:38:16.520Z,100.00
2022-08-27T19:40:46.408Z,100.00
2022-08-27T19:43:16.060Z,100.00
2022-08-27T19:45:45.748Z,100.00
2022-08-27T19:48:16.728Z,100.00
2022-08-27T19:50:48.970Z,100.00
2022-08-27T19:53:20.686Z,100.00
2022-08-27T19:55:50.463Z,100.00
2022-08-27T19:58:21.700Z,100.00
2022-08-27T20:00:52.022Z,100.00
2022-08-27T20:03:22.275Z,100.00
2022-08-27T20:05:55.035Z,100.00
2022-08-27T20:08:24.901Z,100.00
2022-08-27T20:10:54.584Z,100.00
2022-08-27T20:13:24.377Z,100.00
2022-08-27T20:15:54.076Z,100.00
2022-08-27T20:18:23.828Z,100.00
2022-08-27T20:20:56.157Z,100.00
2022-08-27T20:23:25.923Z,100.00
2022-08-27T20:26:00.954Z,100.00
2022-08-27T20:28:39.902Z,100.00
2022-08-27T20:31:10.852Z,100.00
2022-08-27T20:33:40.798Z,100.00
2022-08-27T20:36:15.280Z,100.00
2022-08-27T20:38:45.644Z,100.00
2022-08-27T20:41:15.386Z,100.00
2022-08-27T20:43:45.096Z,100.00
2022-08-27T20:46:15.147Z,100.00
2022-08-27T20:48:45.178Z,100.00
2022-08-27T20:51:17.514Z,100.00
2022-08-27T20:53:47.320Z,100.00
2022-08-27T20:56:17.108Z,100.00
2022-08-27T20:58:59.380Z,100.00
2022-08-27T21:01:29.163Z,100.00
2022-08-27T21:03:59.921Z,100.00
2022-08-27T21:06:33.575Z,100.00
2022-08-27T21:09:03.375Z,100.00
2022-08-27T21:11:35.509Z,100.00
2022-08-27T21:14:05.162Z,100.00
2022-08-27T21:16:36.292Z,100.00
2022-08-27T21:19:06.106Z,100.00
2022-08-27T21:21:38.429Z,100.00
2022-08-27T21:24:08.741Z,100.00
2022-08-27T21:26:38.505Z,100.00
2022-08-27T21:29:08.370Z,100.00
2022-08-27T21:31:38.089Z,100.00
2022-08-27T21:34:07.866Z,100.00
2022-08-27T21:36:40.170Z,100.00
2022-08-27T21:39:10.713Z,100.00
2022-08-27T21:41:40.901Z,100.00
2022-08-27T21:44:10.621Z,100.00
2022-08-27T21:46:40.395Z,100.00
2022-08-27T21:49:10.290Z,100.00
2022-08-27T21:51:44.550Z,100.00
2022-08-27T21:54:14.289Z,100.00
2022-08-27T21:56:44.017Z,100.00
2022-08-27T21:59:13.873Z,100.00
2022-08-27T22:01:43.549Z,100.00
2022-08-27T22:04:13.447Z,100.00
2022-08-27T22:06:45.732Z,100.00
2022-08-27T22:09:15.508Z,100.00
2022-08-27T22:11:46.125Z,100.00
2022-08-27T22:14:16.063Z,100.00
2022-08-27T22:16:45.782Z,100.00
2022-08-27T22:19:15.484Z,100.00
2022-08-27T22:21:48.020Z,100.00
2022-08-27T22:24:18.034Z,100.00
2022-08-27T22:26:47.743Z,100.00
2022-08-27T22:29:17.471Z,100.00
2022-08-27T22:31:47.329Z,100.00
2022-08-27T22:34:17.125Z,100.00
2022-08-27T22:36:49.991Z,100.00
2022-08-27T22:39:19.767Z,100.00
2022-08-27T22:41:49.876Z,100.00
2022-08-27T22:44:21.161Z,100.00
2022-08-27T22:46:52.007Z,100.00
2022-08-27T22:49:21.815Z,100.00
2022-08-27T22:51:54.120Z,100.00
2022-08-27T22:54:23.900Z,100.00
2022-08-27T22:56:53.630Z,100.00
2022-08-27T22:59:23.352Z,100.00
2022-08-27T23:01:53.260Z,100.00
2022-08-27T23:04:34.703Z,100.00
2022-08-27T23:07:15.650Z,100.00
2022-08-27T23:09:45.408Z,100.00
2022-08-27T23:12:16.719Z,100.00
2022-08-27T23:14:46.444Z,100.00
2022-08-27T23:17:16.219Z,100.00
2022-08-27T23:19:46.334Z,100.00
2022-08-27T23:22:18.641Z,100.00
2022-08-27T23:25:00.714Z,100.00
2022-08-27T23:27:32.970Z,100.00
2022-08-27T23:30:05.211Z,100.00
2022-08-27T23:32:34.951Z,100.00
2022-08-27T23:35:04.713Z,100.00
2022-08-27T23:37:37.206Z,100.00
2022-08-27T23:40:09.082Z,100.00
2022-08-27T23:42:39.405Z,100.00
2022-08-27T23:45:11.120Z,100.00
2022-08-27T23:47:40.928Z,100.00
2022-08-27T23:50:11.790Z,100.00
2022-08-27T23:52:44.350Z,100.00
2022-08-27T23:55:15.287Z,100.00
2022-08-27T23:57:45.064Z,100.00
